Terminal Aerodrome Forecast
Issued by NWS North Platte, NE

Home | Current Version | Previous Version | Text Only | Print | Product List | Glossary On
Versions: 1 2 3 4 5 6 7 8 9 10 11 12 13 14
817
FTUS43 KLBF 061727
TAFVTN
TAF
KVTN 061727Z 0618/0718 26012G18KT P6SM SCT250
     FM070000 28009KT P6SM OVC100
     FM071200 32015G21KT P6SM SCT120
     FM071500 31020G30KT P6SM SCT120=

USA.gov is the U.S. government's official web portal to all federal, state and local government web resources and services.